Time;durP1;ratioP1;P1;durP2;ratioP2;P2;SDS_P1;SDS_P2;PMS_P1;PMS_P2;Temp;Humidity;BMP_temperature;BMP_pressure;BME280_temperature;BME280_humidity;BME280_pressure;Samples;Min_cycle;Max_cycle;Signal;HPM_P1;HPM_P2
2022/10/04 00:01:51;;;;;;;12.98;4.72;;;13.50;99.90;;;;;;4963376;28;20170;-77
2022/10/04 00:04:34;;;;;;;16.75;4.10;;;13.40;99.90;;;;;;4961494;28;20361;-78
2022/10/04 00:07:21;;;;;;;6.07;4.03;;;13.40;99.90;;;;;;4963154;28;20011;-76
2022/10/04 00:09:58;;;;;;;11.07;4.43;;;13.40;99.90;;;;;;4962227;28;20696;-77
2022/10/04 00:12:29;;;;;;;13.93;4.30;;;13.40;99.90;;;;;;4964244;28;20031;-75
2022/10/04 00:14:59;;;;;;;7.55;4.15;;;13.40;99.90;;;;;;4965772;28;20030;-74
2022/10/04 00:17:34;;;;;;;15.70;4.95;;;13.40;99.90;;;;;;4948945;28;20042;-71
2022/10/04 00:20:02;;;;;;;7.60;4.60;;;13.40;99.90;;;;;;4966985;28;20047;-79
2022/10/04 00:22:32;;;;;;;8.63;4.50;;;13.50;99.90;;;;;;4968552;28;20023;-76
2022/10/04 00:25:06;;;;;;;6.43;4.03;;;13.50;99.90;;;;;;4966176;28;20023;-76
2022/10/04 00:27:36;;;;;;;10.77;5.25;;;13.50;99.90;;;;;;4958709;28;20050;-77
2022/10/04 00:30:02;;;;;;;7.28;4.85;;;13.50;99.90;;;;;;4967542;28;20049;-77
2022/10/04 00:32:40;;;;;;;14.05;4.65;;;13.60;99.90;;;;;;4954958;28;20061;-74
2022/10/04 00:35:26;;;;;;;14.35;4.10;;;13.60;99.90;;;;;;4963606;28;20046;-76
2022/10/04 00:38:01;;;;;;;8.13;4.55;;;13.50;99.90;;;;;;4964796;28;20038;-78
2022/10/04 00:40:32;;;;;;;12.82;4.57;;;13.50;99.90;;;;;;4964497;28;20027;-77
2022/10/04 00:43:03;;;;;;;10.48;4.15;;;13.50;99.90;;;;;;4943556;28;20027;-76
2022/10/04 00:45:32;;;;;;;10.43;5.00;;;13.50;99.90;;;;;;4964853;28;20595;-76
2022/10/04 00:48:23;;;;;;;10.45;5.03;;;13.50;99.90;;;;;;4963975;28;20031;-75
2022/10/04 00:50:57;;;;;;;12.30;5.45;;;13.50;99.90;;;;;;4961898;28;20023;-76
2022/10/04 00:53:31;;;;;;;17.45;5.47;;;13.50;99.90;;;;;;4944453;28;20138;-76
2022/10/04 00:56:02;;;;;;;10.65;4.60;;;13.50;99.90;;;;;;4961483;28;20110;-77
2022/10/04 00:59:05;;;;;;;16.13;5.50;;;13.50;99.90;;;;;;4950466;28;20040;-76
2022/10/04 01:01:34;;;;;;;10.55;5.22;;;13.50;99.90;;;;;;4912886;28;20036;-76
2022/10/04 01:04:04;;;;;;;12.43;4.80;;;13.40;99.90;;;;;;4964257;28;20023;-76
2022/10/04 01:06:30;;;;;;;11.30;5.22;;;13.40;99.90;;;;;;4962801;28;20027;-73
2022/10/04 01:09:02;;;;;;;8.80;5.03;;;13.50;99.90;;;;;;4960483;28;20030;-77
2022/10/04 01:11:33;;;;;;;13.90;5.03;;;13.40;99.90;;;;;;4947553;28;20034;-76
2022/10/04 01:14:10;;;;;;;13.52;4.80;;;13.50;99.90;;;;;;4961377;28;20030;-76
2022/10/04 01:16:37;;;;;;;11.02;5.35;;;13.40;99.90;;;;;;4960694;28;20066;-77
2022/10/04 01:19:21;;;;;;;9.45;5.15;;;13.40;99.90;;;;;;4962561;28;20061;-77
2022/10/04 01:22:17;;;;;;;17.45;5.35;;;13.40;99.90;;;;;;4957761;28;20023;-76
2022/10/04 01:24:44;;;;;;;13.57;5.38;;;13.40;99.90;;;;;;4945251;28;20098;-77
2022/10/04 01:27:33;;;;;;;14.68;5.50;;;13.40;99.90;;;;;;4961378;28;20019;-76
2022/10/04 01:30:03;;;;;;;11.82;5.60;;;13.40;99.90;;;;;;4958585;28;20034;-76
2022/10/04 01:32:30;;;;;;;11.45;5.60;;;13.40;99.90;;;;;;4963223;28;20101;-74
2022/10/04 01:34:56;;;;;;;11.20;5.00;;;13.40;99.90;;;;;;4957267;28;20050;-75
2022/10/04 01:37:22;;;;;;;21.73;5.43;;;13.40;99.90;;;;;;4960334;28;20034;-75
2022/10/04 01:39:48;;;;;;;16.77;5.28;;;13.40;99.90;;;;;;4953537;28;20035;-77
2022/10/04 01:42:28;;;;;;;14.35;5.15;;;13.40;99.90;;;;;;4953734;28;20042;-75
2022/10/04 01:45:17;;;;;;;13.90;5.47;;;13.40;99.90;;;;;;4943946;28;20715;-77
2022/10/04 01:47:56;;;;;;;10.13;5.18;;;13.40;99.90;;;;;;4945511;28;20026;-74
2022/10/04 01:50:34;;;;;;;11.82;4.93;;;13.40;99.90;;;;;;4961526;28;20027;-75
2022/10/04 01:53:23;;;;;;;14.65;5.25;;;13.30;99.90;;;;;;4960677;28;20054;-74
2022/10/04 01:55:53;;;;;;;16.10;5.93;;;13.40;99.90;;;;;;4960112;28;20027;-76
2022/10/04 01:58:29;;;;;;;14.23;5.65;;;13.40;99.90;;;;;;4949305;28;20031;-75
2022/10/04 02:01:20;;;;;;;10.73;5.15;;;13.40;99.90;;;;;;4942335;28;20031;-76
2022/10/04 02:04:01;;;;;;;13.80;5.75;;;13.40;99.90;;;;;;4964165;28;20441;-77
2022/10/04 02:06:28;;;;;;;11.95;5.50;;;13.30;99.90;;;;;;4963192;28;20045;-77
2022/10/04 02:08:56;;;;;;;13.50;4.97;;;13.30;99.90;;;;;;4961765;28;20093;-75
2022/10/04 02:11:23;;;;;;;13.77;5.80;;;13.30;99.90;;;;;;4962498;28;20031;-72
2022/10/04 02:13:53;;;;;;;13.80;5.50;;;13.30;99.90;;;;;;4952635;28;20037;-76
2022/10/04 02:16:21;;;;;;;14.65;5.78;;;13.30;99.90;;;;;;4962294;28;20118;-76
2022/10/04 02:18:50;;;;;;;15.00;5.78;;;13.20;99.90;;;;;;4962280;28;20043;-77
2022/10/04 02:21:18;;;;;;;16.60;5.72;;;13.20;99.90;;;;;;4965984;28;20045;-75
2022/10/04 02:23:46;;;;;;;18.92;6.32;;;13.30;99.90;;;;;;4960542;28;20019;-76
2022/10/04 02:26:12;;;;;;;14.07;6.35;;;13.30;99.90;;;;;;4962422;28;20057;-77
2022/10/04 02:28:38;;;;;;;11.68;5.78;;;13.20;99.90;;;;;;4962005;28;20106;-77
2022/10/04 02:33:54;;;;;;;17.10;7.25;;;13.20;99.90;;;;;;4963955;28;20182;-76
2022/10/04 02:36:24;;;;;;;16.52;6.57;;;13.20;99.90;;;;;;4956019;28;20111;-76
2022/10/04 02:39:12;;;;;;;16.10;7.65;;;13.20;99.90;;;;;;4960049;28;20034;-76
2022/10/04 02:41:46;;;;;;;19.25;7.18;;;13.20;99.90;;;;;;4962044;28;20518;-76
2022/10/04 02:44:28;;;;;;;23.25;6.80;;;13.30;99.90;;;;;;4960692;28;20058;-76
2022/10/04 02:47:02;;;;;;;13.73;6.43;;;13.40;99.90;;;;;;4959904;28;20511;-77
2022/10/04 02:49:28;;;;;;;17.02;6.22;;;13.40;99.90;;;;;;4960533;28;20028;-76
2022/10/04 02:52:04;;;;;;;14.05;6.30;;;13.40;99.90;;;;;;4960008;28;20605;-77
2022/10/04 02:55:01;;;;;;;19.98;6.80;;;13.40;99.90;;;;;;4948344;28;20080;-74
2022/10/04 02:57:29;;;;;;;18.70;6.65;;;13.40;99.90;;;;;;4964435;28;20141;-77
2022/10/04 03:00:14;;;;;;;14.02;6.32;;;13.40;99.90;;;;;;4950229;28;20082;-75
2022/10/04 03:02:40;;;;;;;24.83;6.47;;;13.40;99.90;;;;;;4964397;28;20500;-74
2022/10/04 03:05:13;;;;;;;13.32;6.88;;;13.30;99.90;;;;;;4962569;28;20106;-75
2022/10/04 03:07:39;;;;;;;23.48;6.72;;;13.20;99.90;;;;;;4958645;28;20099;-75
2022/10/04 03:10:11;;;;;;;14.77;7.15;;;13.20;99.90;;;;;;4960578;28;20115;-75
2022/10/04 03:12:38;;;;;;;26.50;7.22;;;13.20;99.90;;;;;;4962948;28;20366;-72
2022/10/04 03:15:12;;;;;;;23.05;7.57;;;13.20;99.90;;;;;;4965128;28;20030;-76
2022/10/04 03:17:43;;;;;;;20.83;7.25;;;13.20;99.90;;;;;;4959352;28;20035;-76
2022/10/04 03:20:14;;;;;;;12.65;6.65;;;13.10;99.90;;;;;;4960140;28;20041;-77
2022/10/04 03:22:44;;;;;;;17.27;6.93;;;13.00;99.90;;;;;;4965490;28;20035;-75
2022/10/04 03:25:34;;;;;;;20.63;7.03;;;13.00;99.90;;;;;;4965451;28;20055;-77
2022/10/04 03:28:01;;;;;;;13.45;7.10;;;13.00;99.90;;;;;;4945945;28;20094;-77
2022/10/04 03:30:28;;;;;;;17.58;7.25;;;12.90;99.90;;;;;;4969252;28;20046;-77
2022/10/04 03:32:57;;;;;;;20.65;6.90;;;12.90;99.90;;;;;;4964403;28;20037;-77
2022/10/04 03:35:33;;;;;;;21.08;7.25;;;12.90;99.90;;;;;;4964088;28;20053;-76
2022/10/04 03:38:02;;;;;;;17.67;6.82;;;12.90;99.90;;;;;;4956231;28;20039;-76
2022/10/04 03:40:30;;;;;;;15.68;6.50;;;12.80;99.90;;;;;;4966244;28;20031;-76
2022/10/04 03:42:58;;;;;;;18.50;6.60;;;12.80;99.90;;;;;;4950998;28;20031;-76
2022/10/04 03:45:26;;;;;;;19.58;7.68;;;12.80;99.90;;;;;;4964612;28;20607;-76
2022/10/04 03:47:55;;;;;;;14.02;6.13;;;12.80;99.90;;;;;;4961729;28;20031;-72
2022/10/04 03:50:26;;;;;;;15.82;6.75;;;12.80;99.90;;;;;;4967408;28;20023;-76
2022/10/04 03:53:20;;;;;;;18.60;7.13;;;12.70;99.90;;;;;;4950360;28;20035;-75
2022/10/04 03:55:46;;;;;;;15.18;7.00;;;12.70;99.90;;;;;;4936994;28;20043;-77
2022/10/04 03:58:17;;;;;;;13.07;6.68;;;12.70;99.90;;;;;;4955368;28;20181;-78
2022/10/04 04:01:04;;;;;;;19.23;6.50;;;12.70;99.90;;;;;;4965047;28;20099;-77
2022/10/04 04:03:40;;;;;;;19.60;7.40;;;12.60;99.90;;;;;;4942907;28;20046;-77
2022/10/04 04:06:16;;;;;;;18.33;6.97;;;12.60;99.90;;;;;;4965738;28;20031;-75
2022/10/04 04:08:46;;;;;;;15.65;7.13;;;12.60;99.90;;;;;;4949046;28;20026;-77
2022/10/04 04:11:26;;;;;;;13.10;6.40;;;12.60;99.90;;;;;;4967399;28;20474;-73
2022/10/04 04:13:57;;;;;;;14.13;6.70;;;12.50;99.90;;;;;;4966239;28;20022;-71
2022/10/04 04:16:27;;;;;;;14.32;6.95;;;12.50;99.90;;;;;;4965774;28;20029;-76
2022/10/04 04:18:58;;;;;;;17.92;6.85;;;12.50;99.90;;;;;;4962197;28;20035;-74
2022/10/04 04:21:25;;;;;;;16.75;6.40;;;12.50;99.90;;;;;;4967243;28;20049;-75
2022/10/04 04:23:57;;;;;;;15.60;6.88;;;12.40;99.90;;;;;;4964007;28;20107;-76
2022/10/04 04:26:46;;;;;;;18.05;6.82;;;12.40;99.90;;;;;;4955267;28;20325;-76
2022/10/04 04:29:23;;;;;;;17.77;6.72;;;12.40;99.90;;;;;;4952645;28;20047;-75
2022/10/04 04:31:58;;;;;;;18.05;6.40;;;12.30;99.90;;;;;;4963475;28;20569;-77
2022/10/04 04:34:28;;;;;;;19.33;6.93;;;12.30;99.90;;;;;;4964757;28;20035;-76
2022/10/04 04:36:59;;;;;;;21.67;7.43;;;12.30;99.90;;;;;;4957755;28;20081;-76
2022/10/04 04:39:35;;;;;;;17.25;7.20;;;12.20;99.90;;;;;;4962564;28;20023;-75
2022/10/04 04:42:22;;;;;;;22.20;7.38;;;12.20;99.90;;;;;;4965596;28;20031;-75
2022/10/04 04:44:51;;;;;;;19.35;7.18;;;12.20;99.90;;;;;;4965636;28;20085;-77
2022/10/04 04:47:39;;;;;;;17.33;7.93;;;12.20;99.90;;;;;;4962171;28;20023;-76
2022/10/04 04:50:18;;;;;;;27.85;9.18;;;12.10;99.90;;;;;;4962651;28;20022;-76
2022/10/04 04:52:50;;;;;;;17.73;7.40;;;12.10;99.90;;;;;;4960506;28;20401;-75
2022/10/04 04:55:54;;;;;;;16.48;7.07;;;12.10;99.90;;;;;;4963205;28;20102;-76
2022/10/04 04:58:23;;;;;;;14.85;7.50;;;12.10;99.90;;;;;;4920220;28;20105;-76
2022/10/04 05:00:57;;;;;;;12.50;6.80;;;12.10;99.90;;;;;;4961686;28;20023;-76
2022/10/04 05:03:24;;;;;;;16.42;6.95;;;12.00;99.90;;;;;;4963286;28;20045;-76
2022/10/04 05:05:51;;;;;;;13.65;6.78;;;12.10;99.90;;;;;;4967006;28;20651;-76
2022/10/04 05:08:28;;;;;;;14.82;6.53;;;12.00;99.90;;;;;;4954663;28;20027;-77
2022/10/04 05:11:08;;;;;;;15.70;6.32;;;12.00;99.90;;;;;;4967709;28;20085;-77
2022/10/04 05:13:42;;;;;;;19.85;7.70;;;12.00;99.90;;;;;;4959441;28;20059;-77
2022/10/04 05:16:36;;;;;;;16.25;6.45;;;12.00;99.90;;;;;;4965303;28;20023;-75
2022/10/04 05:19:11;;;;;;;14.82;6.28;;;11.90;99.90;;;;;;4963588;28;20515;-76
2022/10/04 05:21:37;;;;;;;13.32;6.38;;;11.90;99.90;;;;;;4948911;28;20114;-75
2022/10/04 05:24:20;;;;;;;12.43;6.78;;;11.90;99.90;;;;;;4961571;28;20031;-76
2022/10/04 05:26:49;;;;;;;16.65;7.32;;;11.90;99.90;;;;;;4964967;28;20038;-74
2022/10/04 05:29:21;;;;;;;11.32;6.85;;;11.80;99.90;;;;;;4963414;28;20403;-76
2022/10/04 05:32:06;;;;;;;11.70;6.85;;;11.80;99.90;;;;;;4961158;28;20043;-76
2022/10/04 05:34:38;;;;;;;17.05;7.15;;;11.80;99.90;;;;;;4958920;28;20151;-76
2022/10/04 05:37:07;;;;;;;;;;;11.80;99.90;;;;;;4964343;28;20027;-74
2022/10/04 05:39:54;;;;;;;13.25;7.40;;;11.80;99.90;;;;;;4960620;28;19914;-76
2022/10/04 05:42:37;;;;;;;11.50;7.55;;;11.80;99.90;;;;;;4959733;28;20069;-75
2022/10/04 05:45:17;;;;;;;25.75;8.27;;;11.80;99.90;;;;;;4958333;28;20030;-75
2022/10/04 05:47:44;;;;;;;15.32;8.02;;;11.80;99.90;;;;;;4953962;28;20672;-74
2022/10/04 05:50:35;;;;;;;20.17;7.75;;;11.70;99.90;;;;;;4960501;28;20039;-76
2022/10/04 05:53:23;;;;;;;19.27;7.85;;;11.70;99.90;;;;;;4947097;28;20145;-76
2022/10/04 05:56:26;;;;;;;16.38;8.10;;;11.70;99.90;;;;;;4959970;28;20019;-76
2022/10/04 05:59:27;;;;;;;13.75;7.75;;;11.80;99.90;;;;;;4956483;28;20046;-74
2022/10/04 06:02:23;;;;;;;15.57;8.13;;;11.70;99.90;;;;;;4958569;28;20027;-76
2022/10/04 06:05:00;;;;;;;22.88;8.77;;;11.80;99.90;;;;;;4918585;28;20063;-75
2022/10/04 06:07:49;;;;;;;14.75;7.20;;;11.80;99.90;;;;;;4955879;28;20019;-75
2022/10/04 06:10:27;;;;;;;17.55;8.80;;;11.80;99.90;;;;;;4944275;28;20345;-75
2022/10/04 06:13:08;;;;;;;18.88;8.50;;;11.80;99.90;;;;;;4959219;28;20055;-76
2022/10/04 06:15:42;;;;;;;15.77;7.55;;;11.90;99.90;;;;;;4959914;28;20031;-76
2022/10/04 06:18:17;;;;;;;18.00;7.97;;;11.90;99.90;;;;;;4962171;28;20031;-76
2022/10/04 06:21:15;;;;;;;19.75;8.05;;;11.90;99.90;;;;;;4958581;28;20110;-76
2022/10/04 06:23:54;;;;;;;17.50;8.07;;;12.00;99.90;;;;;;4947141;28;20099;-76
2022/10/04 06:26:24;;;;;;;16.58;7.60;;;12.10;99.90;;;;;;4962519;28;20019;-76
2022/10/04 06:29:05;;;;;;;19.17;8.82;;;12.10;99.90;;;;;;4945967;28;20388;-76
2022/10/04 06:31:43;;;;;;;19.30;8.43;;;12.20;99.90;;;;;;4961262;28;20015;-75
2022/10/04 06:34:45;;;;;;;23.38;8.35;;;12.20;99.90;;;;;;4961302;28;20027;-76
2022/10/04 06:37:50;;;;;;;15.18;8.05;;;12.20;99.90;;;;;;4892218;29;20040;-74
2022/10/04 06:40:42;;;;;;;16.38;9.38;;;12.30;99.90;;;;;;4957570;28;20023;-73
2022/10/04 06:43:27;;;;;;;29.17;9.10;;;12.40;99.90;;;;;;4948239;28;20038;-74
2022/10/04 06:46:25;;;;;;;17.00;7.70;;;12.40;99.90;;;;;;4959711;28;20031;-76
2022/10/04 06:49:04;;;;;;;15.02;8.07;;;12.40;99.90;;;;;;4961433;28;20043;-74
2022/10/04 06:52:13;;;;;;;19.38;8.63;;;12.50;99.90;;;;;;4957794;28;20027;-76
2022/10/04 06:54:59;;;;;;;18.70;9.35;;;12.50;99.90;;;;;;4958414;28;20464;-76
2022/10/04 06:58:11;;;;;;;18.15;8.85;;;12.50;99.90;;;;;;4966321;28;20035;-76
2022/10/04 07:00:52;;;;;;;18.52;8.38;;;12.50;99.90;;;;;;4938726;28;20049;-76
2022/10/04 07:03:46;;;;;;;14.02;9.15;;;12.50;99.90;;;;;;4946920;28;20026;-75
2022/10/04 07:06:12;;;;;;;22.00;8.98;;;12.60;99.90;;;;;;4964562;28;20487;-76
2022/10/04 07:09:01;;;;;;;19.58;9.85;;;12.60;99.90;;;;;;4968250;28;20094;-75
2022/10/04 07:11:44;;;;;;;17.92;9.27;;;12.60;99.90;;;;;;4962316;28;20536;-75
2022/10/04 07:14:17;;;;;;;20.83;9.25;;;12.60;99.90;;;;;;4967270;28;20023;-77
2022/10/04 07:16:47;;;;;;;20.98;9.82;;;12.70;99.90;;;;;;4964215;28;20039;-74
2022/10/04 07:19:19;;;;;;;20.75;10.05;;;12.70;99.90;;;;;;4963935;28;20093;-75
2022/10/04 07:22:06;;;;;;;21.85;8.82;;;12.70;99.90;;;;;;4967732;28;20062;-77
2022/10/04 07:25:10;;;;;;;19.52;8.82;;;12.70;99.90;;;;;;4963079;28;20122;-75
2022/10/04 07:27:44;;;;;;;23.45;8.70;;;12.80;99.90;;;;;;4947162;28;20409;-76
2022/10/04 07:30:19;;;;;;;20.30;10.05;;;12.80;99.90;;;;;;4964673;28;20027;-75
2022/10/04 07:32:50;;;;;;;15.80;8.82;;;12.80;99.90;;;;;;4960570;28;20034;-75
2022/10/04 07:35:42;;;;;;;18.35;9.23;;;12.80;99.90;;;;;;4963513;28;20181;-73
2022/10/04 07:38:17;;;;;;;18.63;8.82;;;12.90;99.90;;;;;;4950376;28;20516;-77
2022/10/04 07:41:22;;;;;;;14.20;8.57;;;13.00;99.90;;;;;;4963560;28;20021;-76
2022/10/04 07:43:55;;;;;;;20.95;8.75;;;13.10;99.90;;;;;;4962845;28;20074;-77
2022/10/04 07:46:43;;;;;;;16.13;9.13;;;13.10;99.90;;;;;;4968069;28;20054;-74
2022/10/04 07:49:19;;;;;;;15.05;8.80;;;13.10;99.90;;;;;;4968440;28;20076;-73
2022/10/04 07:51:50;;;;;;;15.65;9.93;;;13.10;99.90;;;;;;4967036;28;20030;-75
2022/10/04 07:54:32;;;;;;;14.80;8.70;;;13.10;99.90;;;;;;4965954;28;20050;-74
2022/10/04 07:57:20;;;;;;;17.33;9.38;;;13.10;99.90;;;;;;4964008;28;20046;-76
2022/10/04 07:59:53;;;;;;;25.80;9.55;;;13.20;99.90;;;;;;4953672;28;20035;-73
2022/10/04 08:02:39;;;;;;;19.70;10.63;;;13.20;99.90;;;;;;4964013;28;20099;-70
2022/10/04 08:05:19;;;;;;;24.23;9.38;;;13.40;99.90;;;;;;4952873;28;20031;-77
2022/10/04 08:07:56;;;;;;;15.77;8.93;;;13.50;99.90;;;;;;4964251;28;20042;-75
2022/10/04 08:10:40;;;;;;;20.23;8.30;;;13.60;99.90;;;;;;4963161;28;20031;-74
2022/10/04 08:13:31;;;;;;;14.23;8.20;;;13.70;99.90;;;;;;4963864;28;20085;-75
2022/10/04 08:16:02;;;;;;;15.48;8.25;;;13.90;99.90;;;;;;4965341;28;20030;-76
2022/10/04 08:19:05;;;;;;;15.68;8.25;;;14.00;99.90;;;;;;4945097;28;20098;-73
2022/10/04 08:21:50;;;;;;;12.27;7.68;;;14.20;99.90;;;;;;4963545;28;20031;-75
2022/10/04 08:24:30;;;;;;;20.48;8.38;;;14.50;99.90;;;;;;4964942;28;20042;-76
2022/10/04 08:27:40;;;;;;;20.23;8.38;;;14.60;99.90;;;;;;4967015;28;20869;-76
2022/10/04 08:30:15;;;;;;;17.77;8.55;;;14.80;99.90;;;;;;4875855;29;20029;-76
2022/10/04 08:33:00;;;;;;;21.90;9.02;;;15.00;99.90;;;;;;4963144;28;20047;-75
2022/10/04 08:35:55;;;;;;;24.48;7.78;;;15.30;99.90;;;;;;4967728;28;20138;-74
2022/10/04 08:38:41;;;;;;;19.73;8.18;;;15.70;99.90;;;;;;4966786;28;20015;-73
2022/10/04 08:41:26;;;;;;;22.45;8.25;;;15.70;99.90;;;;;;4964802;28;20031;-74
2022/10/04 08:44:18;;;;;;;259.08;119.90;;;16.00;99.90;;;;;;4964389;28;20093;-72
2022/10/04 08:47:09;;;;;;;11.30;7.07;;;16.20;99.90;;;;;;4962515;28;20031;-72
2022/10/04 08:50:00;;;;;;;18.65;8.07;;;16.50;99.90;;;;;;4963492;28;20118;-76
2022/10/04 08:52:57;;;;;;;14.82;6.70;;;17.30;99.90;;;;;;4942800;28;20717;-74
2022/10/04 08:55:42;;;;;;;16.85;7.97;;;17.50;99.90;;;;;;4967811;28;20015;-74
2022/10/04 08:58:43;;;;;;;16.88;6.75;;;17.60;99.90;;;;;;4962551;28;20029;-78
2022/10/04 09:01:46;;;;;;;15.13;6.95;;;17.90;99.90;;;;;;4963277;28;20094;-75
2022/10/04 09:04:44;;;;;;;9.35;6.35;;;17.90;99.90;;;;;;4965421;28;20023;-75
2022/10/04 09:07:40;;;;;;;11.52;6.57;;;17.80;99.90;;;;;;4964290;28;20065;-75
2022/10/04 09:10:30;;;;;;;21.63;7.22;;;18.80;99.90;;;;;;4977215;28;20046;-75
2022/10/04 09:12:56;;;;;;;14.00;7.13;;;20.40;99.90;;;;;;4977862;28;20027;-74
2022/10/04 09:15:40;;;;;;;18.50;7.20;;;21.20;97.70;;;;;;4980510;28;20037;-75
2022/10/04 09:18:11;;;;;;;14.55;7.30;;;21.70;96.30;;;;;;4979899;28;20031;-76
2022/10/04 09:21:00;;;;;;;11.45;7.00;;;22.40;94.50;;;;;;4977987;28;20026;-77
2022/10/04 09:23:45;;;;;;;8.15;6.30;;;22.80;92.80;;;;;;4958047;28;20027;-78
2022/10/04 09:26:32;;;;;;;16.27;6.80;;;22.70;92.10;;;;;;4971289;28;20348;-77
2022/10/04 09:29:03;;;;;;;15.35;7.80;;;22.40;91.10;;;;;;4962725;28;20038;-77
2022/10/04 09:31:56;;;;;;;12.07;6.50;;;21.50;91.50;;;;;;4964712;28;20019;-75
2022/10/04 09:34:37;;;;;;;15.40;6.50;;;21.10;92.40;;;;;;4961063;28;20050;-76
2022/10/04 09:37:18;;;;;;;187.13;90.57;;;20.90;92.70;;;;;;4960008;28;20020;-74
2022/10/04 09:40:14;;;;;;;17.50;7.70;;;20.60;93.30;;;;;;4962049;28;20110;-76
2022/10/04 09:42:58;;;;;;;14.20;6.20;;;20.20;92.30;;;;;;4958535;28;20078;-75
2022/10/04 09:45:41;;;;;;;9.00;5.97;;;20.20;93.20;;;;;;4963198;28;20114;-75
2022/10/04 09:48:39;;;;;;;14.15;6.65;;;20.40;94.40;;;;;;4967031;28;20023;-75
2022/10/04 09:51:43;;;;;;;11.38;6.78;;;19.90;93.80;;;;;;4965914;28;20107;-77
2022/10/04 09:54:20;;;;;;;;;;;20.00;94.80;;;;;;4963477;28;20626;-77
2022/10/04 09:56:50;;;;;;;9.23;5.70;;;19.80;93.80;;;;;;4962868;28;19945;-73
2022/10/04 09:59:50;;;;;;;15.20;6.70;;;19.80;96.30;;;;;;4963289;28;20026;-73
2022/10/04 10:02:40;;;;;;;11.70;5.43;;;19.80;96.00;;;;;;4948960;28;20468;-73
2022/10/04 10:05:27;;;;;;;10.48;6.30;;;19.80;94.50;;;;;;4963013;28;20094;-73
2022/10/04 10:08:27;;;;;;;14.10;5.90;;;19.80;94.40;;;;;;4968740;28;20022;-73
2022/10/04 10:13:57;;;;;;;9.55;5.95;;;19.70;94.20;;;;;;4961400;28;20085;-72
2022/10/04 10:16:32;;;;;;;13.05;5.90;;;19.90;94.00;;;;;;4964086;28;20483;-72
2022/10/04 10:19:11;;;;;;;8.65;5.30;;;20.00;94.90;;;;;;4964528;28;20038;-72
2022/10/04 10:22:10;;;;;;;9.25;5.45;;;20.30;94.00;;;;;;4946043;28;20342;-74
2022/10/04 10:25:02;;;;;;;14.02;5.45;;;20.50;93.30;;;;;;4964947;28;20027;-73
2022/10/04 10:27:46;;;;;;;12.20;6.30;;;20.50;93.60;;;;;;4956023;28;20027;-72
2022/10/04 10:30:30;;;;;;;21.75;9.50;;;21.00;92.60;;;;;;4965393;28;20098;-72
2022/10/04 10:33:23;;;;;;;7.10;4.90;;;21.20;92.70;;;;;;4961304;28;20027;-74
2022/10/04 10:36:03;;;;;;;;;;;21.30;91.80;;;;;;4962852;28;20457;-75
2022/10/04 10:38:48;;;;;;;10.68;4.80;;;21.80;91.50;;;;;;4962586;28;19910;-77
2022/10/04 10:41:24;;;;;;;12.32;5.30;;;22.20;90.10;;;;;;4962117;28;20576;-76
2022/10/04 10:44:06;;;;;;;13.55;4.97;;;22.20;89.40;;;;;;4965921;28;20106;-74
2022/10/04 10:47:23;;;;;;;7.57;4.55;;;22.10;87.80;;;;;;4964103;28;20062;-75
2022/10/04 10:50:10;;;;;;;9.13;4.72;;;22.30;87.50;;;;;;4880720;28;20185;-74
2022/10/04 10:52:38;;;;;;;6.53;4.95;;;22.30;88.00;;;;;;4963988;28;20045;-74
2022/10/04 10:55:32;;;;;;;10.23;4.43;;;22.50;88.10;;;;;;4961717;28;20535;-76
2022/10/04 10:58:16;;;;;;;10.85;5.40;;;22.60;85.00;;;;;;4961196;28;20105;-76
2022/10/04 11:01:24;;;;;;;7.80;4.15;;;21.90;85.50;;;;;;4964229;28;20069;-75
2022/10/04 11:04:26;;;;;;;5.57;4.03;;;21.70;87.90;;;;;;4952740;28;20114;-76
2022/10/04 11:07:03;;;;;;;7.68;4.32;;;21.80;87.00;;;;;;4964617;28;20058;-75
2022/10/04 11:09:46;;;;;;;8.90;4.43;;;21.70;87.00;;;;;;4964976;28;20360;-76
2022/10/04 11:12:18;;;;;;;9.82;4.20;;;21.90;85.60;;;;;;4950056;28;20030;-74
2022/10/04 11:15:19;;;;;;;10.48;4.43;;;21.70;85.50;;;;;;4963960;28;20094;-76
2022/10/04 11:17:50;;;;;;;12.07;4.90;;;21.90;85.90;;;;;;4961326;28;20109;-75
2022/10/04 11:20:41;;;;;;;7.85;4.35;;;21.90;84.60;;;;;;4964063;28;20027;-76
2022/10/04 11:23:45;;;;;;;109.47;46.45;;;21.80;85.40;;;;;;4966246;28;20031;-75
2022/10/04 11:26:45;;;;;;;11.57;5.10;;;22.10;87.10;;;;;;4963589;28;20037;-73
2022/10/04 11:29:25;;;;;;;7.25;4.60;;;22.30;83.40;;;;;;4945078;28;20071;-73
2022/10/04 11:32:00;;;;;;;7.10;5.00;;;21.90;84.00;;;;;;4949223;28;20441;-75
2022/10/04 11:35:02;;;;;;;14.02;4.93;;;22.10;82.40;;;;;;4963169;28;20028;-77
2022/10/04 11:37:46;;;;;;;16.17;4.60;;;21.80;83.90;;;;;;4964658;28;20054;-77
2022/10/04 11:40:15;;;;;;;12.98;4.72;;;21.70;83.80;;;;;;4963615;28;20055;-75
2022/10/04 11:42:58;;;;;;;11.45;4.75;;;22.00;83.70;;;;;;4964600;28;20031;-76
2022/10/04 11:45:42;;;;;;;13.82;4.78;;;22.40;82.80;;;;;;4962125;28;20030;-78
2022/10/04 11:48:35;;;;;;;10.73;4.05;;;22.00;84.60;;;;;;4941670;28;20429;-75
2022/10/04 11:51:35;;;;;;;7.80;4.28;;;22.50;84.00;;;;;;4966087;28;20181;-77
2022/10/04 11:54:03;;;;;;;149.10;68.13;;;23.00;80.00;;;;;;4962191;28;20031;-75
2022/10/04 11:56:39;;;;;;;12.27;4.45;;;23.00;80.20;;;;;;4966273;28;20094;-78
2022/10/04 11:59:36;;;;;;;10.32;4.28;;;22.60;79.70;;;;;;4964253;28;20062;-78
2022/10/04 12:02:16;;;;;;;6.30;4.28;;;22.30;79.60;;;;;;4961855;28;20051;-78
2022/10/04 12:04:52;;;;;;;11.27;5.20;;;22.30;79.40;;;;;;4964045;28;20483;-77
2022/10/04 12:07:45;;;;;;;14.27;4.72;;;22.50;79.10;;;;;;4970000;28;20441;-79
2022/10/04 12:10:28;;;;;;;;;;;22.30;80.50;;;;;;4956664;28;20045;-76
2022/10/04 12:13:28;;;;;;;5.23;4.60;;;22.60;80.40;;;;;;4966657;28;19921;-77
2022/10/04 12:16:17;;;;;;;10.00;4.85;;;23.00;77.70;;;;;;4964545;28;20267;-79
2022/10/04 12:19:18;;;;;;;11.75;4.25;;;23.00;78.20;;;;;;4968634;28;20054;-78
2022/10/04 12:21:53;;;;;;;7.57;4.05;;;23.00;78.40;;;;;;4966985;28;20106;-77
2022/10/04 12:24:25;;;;;;;8.77;4.40;;;23.10;78.70;;;;;;4970607;28;20022;-74
2022/10/04 12:27:10;;;;;;;15.38;4.60;;;22.80;79.30;;;;;;4962423;28;20024;-72
2022/10/04 12:29:44;;;;;;;11.05;3.92;;;23.20;77.40;;;;;;4965218;28;20039;-74
2022/10/04 12:32:23;;;;;;;7.50;4.05;;;23.10;77.70;;;;;;4968071;28;20046;-76
2022/10/04 12:35:07;;;;;;;84.80;37.47;;;23.30;76.30;;;;;;4966230;28;20038;-75
2022/10/04 12:37:39;;;;;;;9.70;4.97;;;23.30;77.60;;;;;;4965607;28;20035;-77
2022/10/04 12:40:11;;;;;;;10.63;4.68;;;23.80;75.30;;;;;;4960835;28;20111;-77
2022/10/04 12:42:57;;;;;;;10.48;5.18;;;23.00;75.70;;;;;;4951897;28;20351;-74
2022/10/04 12:45:51;;;;;;;5.03;4.03;;;22.90;77.50;;;;;;4964163;28;20066;-76
2022/10/04 12:48:22;;;;;;;7.32;4.30;;;23.40;76.80;;;;;;4962952;28;20077;-76
2022/10/04 12:51:16;;;;;;;6.40;3.90;;;23.70;76.00;;;;;;4961604;28;20062;-78
2022/10/04 12:54:11;;;;;;;8.85;4.82;;;23.60;75.20;;;;;;4963769;28;20109;-77
2022/10/04 12:57:05;;;;;;;6.85;4.75;;;23.50;74.30;;;;;;4945784;28;20046;-76
2022/10/04 12:59:39;;;;;;;12.05;4.88;;;23.30;76.10;;;;;;4965960;28;20046;-77
2022/10/04 13:02:34;;;;;;;9.07;4.88;;;23.70;75.80;;;;;;4965598;28;20089;-77
2022/10/04 13:05:28;;;;;;;8.85;4.35;;;23.60;74.90;;;;;;4946714;28;20026;-77
2022/10/04 13:08:12;;;;;;;13.85;4.32;;;23.80;74.10;;;;;;4962918;28;20023;-76
2022/10/04 13:10:46;;;;;;;13.35;4.38;;;24.20;74.50;;;;;;4962641;28;20042;-76
2022/10/04 13:13:31;;;;;;;9.25;4.18;;;24.30;74.00;;;;;;4962889;28;20050;-76
2022/10/04 13:16:18;;;;;;;8.10;3.97;;;24.70;72.90;;;;;;5053600;28;20450;-74
2022/10/04 13:19:02;;;;;;;92.38;44.90;;;25.20;71.80;;;;;;5055583;28;20024;-73
2022/10/04 13:21:42;;;;;;;7.93;4.13;;;25.30;69.20;;;;;;5055199;28;20028;-74
2022/10/04 13:24:11;;;;;;;9.63;4.60;;;25.70;69.60;;;;;;5059707;28;20037;-74
2022/10/04 13:26:39;;;;;;;6.28;4.35;;;25.80;68.00;;;;;;5052644;28;20025;-75
2022/10/04 13:29:13;;;;;;;8.55;3.60;;;25.70;66.90;;;;;;5052206;28;20446;-77
2022/10/04 13:31:44;;;;;;;6.15;4.28;;;24.60;68.20;;;;;;5061373;28;20373;-76
2022/10/04 13:34:24;;;;;;;11.48;4.07;;;24.60;69.10;;;;;;5059692;28;20025;-77
2022/10/04 13:36:50;;;;;;;8.93;3.75;;;24.60;70.00;;;;;;5054732;28;20049;-74
2022/10/04 13:39:37;;;;;;;8.10;3.70;;;25.00;68.70;;;;;;5057081;28;20025;-76
2022/10/04 13:42:41;;;;;;;6.70;3.40;;;24.90;66.00;;;;;;5059265;28;20610;-75
2022/10/04 13:45:34;;;;;;;6.82;4.10;;;25.20;67.90;;;;;;5063249;28;20087;-76
2022/10/04 13:48:19;;;;;;;7.00;3.90;;;25.80;67.10;;;;;;5058451;28;20078;-75
2022/10/04 13:51:26;;;;;;;9.85;4.03;;;27.70;63.70;;;;;;5053474;28;20025;-76
2022/10/04 13:57:00;;;;;;;8.15;4.28;;;34.20;52.50;;;;;;5054835;28;20032;-75